sensor_id;sensor_type;location;lat;lon;timestamp;temperature;humidity
55329;DHT22;41205;44.264;19.884;2024-01-16T00:02:15;102.60;2227.20
55329;DHT22;41205;44.264;19.884;2024-01-16T00:04:40;102.60;2227.20
55329;DHT22;41205;44.264;19.884;2024-01-16T00:07:06;102.80;2227.20
55329;DHT22;41205;44.264;19.884;2024-01-16T00:09:35;102.90;2227.20
55329;DHT22;41205;44.264;19.884;2024-01-16T00:12:02;102.50;2227.20
55329;DHT22;41205;44.264;19.884;2024-01-16T00:14:29;103.10;2227.20
55329;DHT22;41205;44.264;19.884;2024-01-16T00:16:55;103.10;2227.20
55329;DHT22;41205;44.264;19.884;2024-01-16T00:19:20;103.10;2227.20
55329;DHT22;41205;44.264;19.884;2024-01-16T00:21:46;103.20;2227.20
55329;DHT22;41205;44.264;19.884;2024-01-16T00:24:13;103.20;2227.20
55329;DHT22;41205;44.264;19.884;2024-01-16T00:26:39;103.30;2227.20
55329;DHT22;41205;44.264;19.884;2024-01-16T00:29:05;103.20;2227.20
55329;DHT22;41205;44.264;19.884;2024-01-16T00:31:31;103.30;2227.20
55329;DHT22;41205;44.264;19.884;2024-01-16T00:33:57;128.00;2252.80
55329;DHT22;41205;44.264;19.884;2024-01-16T00:36:23;128.00;2252.80
55329;DHT22;41205;44.264;19.884;2024-01-16T00:38:48;103.30;2227.20
55329;DHT22;41205;44.264;19.884;2024-01-16T00:41:14;103.10;2227.20
55329;DHT22;41205;44.264;19.884;2024-01-16T00:43:41;102.80;2227.20
55329;DHT22;41205;44.264;19.884;2024-01-16T00:46:07;102.90;2227.20
55329;DHT22;41205;44.264;19.884;2024-01-16T00:48:33;103.00;2227.20
55329;DHT22;41205;44.264;19.884;2024-01-16T00:50:58;103.10;2227.20
55329;DHT22;41205;44.264;19.884;2024-01-16T00:53:26;102.80;2227.20
55329;DHT22;41205;44.264;19.884;2024-01-16T00:55:53;102.80;2227.20
55329;DHT22;41205;44.264;19.884;2024-01-16T00:58:21;102.80;2227.20
55329;DHT22;41205;44.264;19.884;2024-01-16T01:00:47;102.60;2227.20
55329;DHT22;41205;44.264;19.884;2024-01-16T01:03:13;102.80;2227.20
55329;DHT22;41205;44.264;19.884;2024-01-16T01:05:38;102.90;2227.20
55329;DHT22;41205;44.264;19.884;2024-01-16T01:08:04;103.00;2227.20
55329;DHT22;41205;44.264;19.884;2024-01-16T01:10:30;102.90;2227.20
55329;DHT22;41205;44.264;19.884;2024-01-16T01:12:56;102.80;2227.20
55329;DHT22;41205;44.264;19.884;2024-01-16T01:15:22;102.80;2227.20
55329;DHT22;41205;44.264;19.884;2024-01-16T01:17:51;102.80;2227.20
55329;DHT22;41205;44.264;19.884;2024-01-16T01:20:18;102.80;2227.20
55329;DHT22;41205;44.264;19.884;2024-01-16T01:22:44;102.80;2227.20
55329;DHT22;41205;44.264;19.884;2024-01-16T01:25:11;102.60;2227.20
55329;DHT22;41205;44.264;19.884;2024-01-16T01:27:40;102.70;2227.20
55329;DHT22;41205;44.264;19.884;2024-01-16T01:30:09;102.60;2227.20
55329;DHT22;41205;44.264;19.884;2024-01-16T01:32:38;102.50;2227.20
55329;DHT22;41205;44.264;19.884;2024-01-16T01:35:05;102.40;2227.20
55329;DHT22;41205;44.264;19.884;2024-01-16T01:37:31;77.70;2227.20
55329;DHT22;41205;44.264;19.884;2024-01-16T01:39:57;77.60;2227.20
55329;DHT22;41205;44.264;19.884;2024-01-16T01:42:23;77.70;2227.20
55329;DHT22;41205;44.264;19.884;2024-01-16T01:44:49;77.60;2227.20
55329;DHT22;41205;44.264;19.884;2024-01-16T01:47:14;77.70;2227.20
55329;DHT22;41205;44.264;19.884;2024-01-16T01:49:40;102.40;2227.20
55329;DHT22;41205;44.264;19.884;2024-01-16T01:52:07;77.70;2227.20
55329;DHT22;41205;44.264;19.884;2024-01-16T01:54:35;102.40;2227.20
55329;DHT22;41205;44.264;19.884;2024-01-16T01:57:02;102.40;2227.20
55329;DHT22;41205;44.264;19.884;2024-01-16T01:59:29;102.50;2227.20
55329;DHT22;41205;44.264;19.884;2024-01-16T02:01:56;102.60;2227.20
55329;DHT22;41205;44.264;19.884;2024-01-16T02:04:22;102.50;2227.20
55329;DHT22;41205;44.264;19.884;2024-01-16T02:06:50;102.60;2227.20
55329;DHT22;41205;44.264;19.884;2024-01-16T02:09:15;102.60;2227.20
55329;DHT22;41205;44.264;19.884;2024-01-16T02:11:42;102.60;2227.20
55329;DHT22;41205;44.264;19.884;2024-01-16T02:14:08;102.60;2227.20
55329;DHT22;41205;44.264;19.884;2024-01-16T02:16:39;102.80;2227.20
55329;DHT22;41205;44.264;19.884;2024-01-16T02:19:06;102.90;2227.20
55329;DHT22;41205;44.264;19.884;2024-01-16T02:21:38;102.90;2227.20
55329;DHT22;41205;44.264;19.884;2024-01-16T02:24:05;102.80;2227.20
55329;DHT22;41205;44.264;19.884;2024-01-16T02:26:33;103.10;2227.20
55329;DHT22;41205;44.264;19.884;2024-01-16T02:29:01;102.80;2227.20
55329;DHT22;41205;44.264;19.884;2024-01-16T02:31:27;102.90;2227.20
55329;DHT22;41205;44.264;19.884;2024-01-16T02:33:53;102.70;2227.20
55329;DHT22;41205;44.264;19.884;2024-01-16T02:36:19;102.70;2227.20
55329;DHT22;41205;44.264;19.884;2024-01-16T02:38:45;102.40;2227.20
55329;DHT22;41205;44.264;19.884;2024-01-16T02:41:13;102.60;2227.20
55329;DHT22;41205;44.264;19.884;2024-01-16T02:43:39;102.60;2227.20
55329;DHT22;41205;44.264;19.884;2024-01-16T02:46:05;102.70;2227.20
55329;DHT22;41205;44.264;19.884;2024-01-16T02:48:31;102.60;2227.20
55329;DHT22;41205;44.264;19.884;2024-01-16T02:50:56;102.60;2227.20
55329;DHT22;41205;44.264;19.884;2024-01-16T02:53:22;102.80;2227.20
55329;DHT22;41205;44.264;19.884;2024-01-16T02:55:48;102.80;2227.20
55329;DHT22;41205;44.264;19.884;2024-01-16T02:58:13;102.70;2227.20
55329;DHT22;41205;44.264;19.884;2024-01-16T03:00:39;102.70;2227.20
55329;DHT22;41205;44.264;19.884;2024-01-16T03:03:05;102.70;2227.20
55329;DHT22;41205;44.264;19.884;2024-01-16T03:05:31;102.80;2227.20
55329;DHT22;41205;44.264;19.884;2024-01-16T03:07:57;102.90;2227.20
55329;DHT22;41205;44.264;19.884;2024-01-16T03:10:22;102.90;2227.20
55329;DHT22;41205;44.264;19.884;2024-01-16T03:12:48;102.80;2227.20
55329;DHT22;41205;44.264;19.884;2024-01-16T03:15:14;102.80;2227.20
55329;DHT22;41205;44.264;19.884;2024-01-16T03:17:40;102.80;2227.20
55329;DHT22;41205;44.264;19.884;2024-01-16T03:20:06;102.80;2227.20
55329;DHT22;41205;44.264;19.884;2024-01-16T03:22:32;102.90;2227.20
55329;DHT22;41205;44.264;19.884;2024-01-16T03:24:58;102.90;2227.20
55329;DHT22;41205;44.264;19.884;2024-01-16T03:27:23;102.90;2227.20
55329;DHT22;41205;44.264;19.884;2024-01-16T03:29:49;102.90;2227.20
55329;DHT22;41205;44.264;19.884;2024-01-16T03:32:15;102.80;2227.20
55329;DHT22;41205;44.264;19.884;2024-01-16T03:34:41;102.80;2227.20
55329;DHT22;41205;44.264;19.884;2024-01-16T03:37:07;102.50;2227.20
55329;DHT22;41205;44.264;19.884;2024-01-16T03:39:32;102.50;2227.20
55329;DHT22;41205;44.264;19.884;2024-01-16T03:41:58;102.50;2227.20
55329;DHT22;41205;44.264;19.884;2024-01-16T03:44:24;102.50;2227.20
55329;DHT22;41205;44.264;19.884;2024-01-16T03:46:49;102.50;2227.20
55329;DHT22;41205;44.264;19.884;2024-01-16T03:49:15;102.60;2227.20
55329;DHT22;41205;44.264;19.884;2024-01-16T03:51:41;102.60;2227.20
55329;DHT22;41205;44.264;19.884;2024-01-16T03:54:12;102.60;2227.20
55329;DHT22;41205;44.264;19.884;2024-01-16T03:56:39;102.60;2227.20
55329;DHT22;41205;44.264;19.884;2024-01-16T03:59:05;102.70;2227.20
55329;DHT22;41205;44.264;19.884;2024-01-16T04:01:32;102.70;2227.20
55329;DHT22;41205;44.264;19.884;2024-01-16T04:03:58;102.70;2227.20
55329;DHT22;41205;44.264;19.884;2024-01-16T04:06:24;102.70;2227.20
55329;DHT22;41205;44.264;19.884;2024-01-16T04:08:50;102.60;2227.20
55329;DHT22;41205;44.264;19.884;2024-01-16T04:11:15;102.60;2227.20
55329;DHT22;41205;44.264;19.884;2024-01-16T04:13:41;102.70;2227.20
55329;DHT22;41205;44.264;19.884;2024-01-16T04:16:08;102.70;2227.20
55329;DHT22;41205;44.264;19.884;2024-01-16T04:18:37;102.70;2227.20
55329;DHT22;41205;44.264;19.884;2024-01-16T04:21:06;102.80;2227.20
55329;DHT22;41205;44.264;19.884;2024-01-16T04:23:32;102.80;2227.20
55329;DHT22;41205;44.264;19.884;2024-01-16T04:25:58;102.90;2227.20
55329;DHT22;41205;44.264;19.884;2024-01-16T04:28:24;102.80;2227.20
55329;DHT22;41205;44.264;19.884;2024-01-16T04:30:50;102.90;2227.20
55329;DHT22;41205;44.264;19.884;2024-01-16T04:33:16;102.80;2227.20
55329;DHT22;41205;44.264;19.884;2024-01-16T04:35:42;102.80;2227.20
55329;DHT22;41205;44.264;19.884;2024-01-16T04:38:08;102.70;2227.20
55329;DHT22;41205;44.264;19.884;2024-01-16T04:40:33;102.50;2227.20
55329;DHT22;41205;44.264;19.884;2024-01-16T04:42:59;102.60;2227.20
55329;DHT22;41205;44.264;19.884;2024-01-16T04:45:25;102.70;2227.20
55329;DHT22;41205;44.264;19.884;2024-01-16T04:47:51;102.70;2227.20
55329;DHT22;41205;44.264;19.884;2024-01-16T04:50:17;102.50;2227.20
55329;DHT22;41205;44.264;19.884;2024-01-16T04:52:43;77.70;2227.20
55329;DHT22;41205;44.264;19.884;2024-01-16T04:55:09;77.60;2227.20
55329;DHT22;41205;44.264;19.884;2024-01-16T04:57:35;102.40;2227.20
55329;DHT22;41205;44.264;19.884;2024-01-16T05:00:00;102.50;2227.20
55329;DHT22;41205;44.264;19.884;2024-01-16T05:02:26;102.60;2227.20
55329;DHT22;41205;44.264;19.884;2024-01-16T05:04:52;102.60;2227.20
55329;DHT22;41205;44.264;19.884;2024-01-16T05:07:18;102.40;2227.20
55329;DHT22;41205;44.264;19.884;2024-01-16T05:09:46;102.40;2227.20
55329;DHT22;41205;44.264;19.884;2024-01-16T05:12:12;102.50;2227.20
55329;DHT22;41205;44.264;19.884;2024-01-16T05:14:38;102.60;2227.20
55329;DHT22;41205;44.264;19.884;2024-01-16T05:17:04;102.50;2227.20
55329;DHT22;41205;44.264;19.884;2024-01-16T05:19:30;102.70;2227.20
55329;DHT22;41205;44.264;19.884;2024-01-16T05:21:56;102.60;2227.20
55329;DHT22;41205;44.264;19.884;2024-01-16T05:24:21;102.50;2227.20
55329;DHT22;41205;44.264;19.884;2024-01-16T05:26:47;102.50;2227.20
55329;DHT22;41205;44.264;19.884;2024-01-16T05:29:13;102.40;2227.20
55329;DHT22;41205;44.264;19.884;2024-01-16T05:31:42;102.60;2227.20
55329;DHT22;41205;44.264;19.884;2024-01-16T05:34:08;102.60;2227.20
55329;DHT22;41205;44.264;19.884;2024-01-16T05:36:34;102.60;2227.20
55329;DHT22;41205;44.264;19.884;2024-01-16T05:39:00;102.50;2227.20
55329;DHT22;41205;44.264;19.884;2024-01-16T05:41:26;102.40;2227.20
55329;DHT22;41205;44.264;19.884;2024-01-16T05:43:52;102.50;2227.20
55329;DHT22;41205;44.264;19.884;2024-01-16T05:46:18;102.50;2227.20
55329;DHT22;41205;44.264;19.884;2024-01-16T05:48:44;102.60;2227.20
55329;DHT22;41205;44.264;19.884;2024-01-16T05:51:10;102.70;2227.20
55329;DHT22;41205;44.264;19.884;2024-01-16T05:53:35;102.60;2227.20
55329;DHT22;41205;44.264;19.884;2024-01-16T05:56:01;102.60;2227.20
55329;DHT22;41205;44.264;19.884;2024-01-16T05:58:27;102.40;2227.20
55329;DHT22;41205;44.264;19.884;2024-01-16T06:00:53;102.40;2227.20
55329;DHT22;41205;44.264;19.884;2024-01-16T06:03:18;102.40;2227.20
55329;DHT22;41205;44.264;19.884;2024-01-16T06:05:44;102.50;2227.20
55329;DHT22;41205;44.264;19.884;2024-01-16T06:08:10;102.50;2227.20
55329;DHT22;41205;44.264;19.884;2024-01-16T06:10:36;102.60;2227.20
55329;DHT22;41205;44.264;19.884;2024-01-16T06:13:01;102.60;2227.20
55329;DHT22;41205;44.264;19.884;2024-01-16T06:15:27;102.50;2227.20
55329;DHT22;41205;44.264;19.884;2024-01-16T06:17:53;102.50;2227.20
55329;DHT22;41205;44.264;19.884;2024-01-16T06:20:19;102.50;2227.20
55329;DHT22;41205;44.264;19.884;2024-01-16T06:22:45;102.50;2227.20
55329;DHT22;41205;44.264;19.884;2024-01-16T06:25:11;102.60;2227.20
55329;DHT22;41205;44.264;19.884;2024-01-16T06:27:37;102.60;2227.20
55329;DHT22;41205;44.264;19.884;2024-01-16T06:30:03;102.60;2227.20
55329;DHT22;41205;44.264;19.884;2024-01-16T06:32:29;102.70;2227.20
55329;DHT22;41205;44.264;19.884;2024-01-16T06:34:55;102.70;2227.20
55329;DHT22;41205;44.264;19.884;2024-01-16T06:37:20;102.70;2227.20
55329;DHT22;41205;44.264;19.884;2024-01-16T06:39:46;102.60;2227.20
55329;DHT22;41205;44.264;19.884;2024-01-16T06:42:12;102.70;2227.20
55329;DHT22;41205;44.264;19.884;2024-01-16T06:44:38;102.80;2227.20
55329;DHT22;41205;44.264;19.884;2024-01-16T06:47:04;102.80;2227.20
55329;DHT22;41205;44.264;19.884;2024-01-16T06:49:30;102.70;2227.20
55329;DHT22;41205;44.264;19.884;2024-01-16T06:51:56;102.70;2227.20
55329;DHT22;41205;44.264;19.884;2024-01-16T06:54:23;102.80;2227.20
55329;DHT22;41205;44.264;19.884;2024-01-16T06:56:49;102.80;2227.20
55329;DHT22;41205;44.264;19.884;2024-01-16T06:59:15;102.80;2227.20
55329;DHT22;41205;44.264;19.884;2024-01-16T07:01:41;102.80;2227.20
55329;DHT22;41205;44.264;19.884;2024-01-16T07:04:07;102.90;2227.20
55329;DHT22;41205;44.264;19.884;2024-01-16T07:06:33;102.70;2227.20
55329;DHT22;41205;44.264;19.884;2024-01-16T07:08:58;102.90;2227.20
55329;DHT22;41205;44.264;19.884;2024-01-16T07:11:24;102.90;2227.20
55329;DHT22;41205;44.264;19.884;2024-01-16T07:13:50;102.90;2227.20
55329;DHT22;41205;44.264;19.884;2024-01-16T07:16:16;102.90;2227.20
55329;DHT22;41205;44.264;19.884;2024-01-16T07:18:41;103.00;2227.20
55329;DHT22;41205;44.264;19.884;2024-01-16T07:21:19;103.10;2227.20
55329;DHT22;41205;44.264;19.884;2024-01-16T07:23:47;103.10;2227.20
55329;DHT22;41205;44.264;19.884;2024-01-16T07:26:13;103.10;2227.20
55329;DHT22;41205;44.264;19.884;2024-01-16T07:28:38;103.10;2227.20
55329;DHT22;41205;44.264;19.884;2024-01-16T07:31:04;103.10;2227.20
55329;DHT22;41205;44.264;19.884;2024-01-16T07:33:32;103.10;2227.20
55329;DHT22;41205;44.264;19.884;2024-01-16T07:35:58;103.00;2227.20
55329;DHT22;41205;44.264;19.884;2024-01-16T07:38:23;103.10;2227.20
55329;DHT22;41205;44.264;19.884;2024-01-16T07:40:49;103.20;2227.20
55329;DHT22;41205;44.264;19.884;2024-01-16T07:43:15;103.30;2227.20
55329;DHT22;41205;44.264;19.884;2024-01-16T07:45:41;128.00;2252.80
55329;DHT22;41205;44.264;19.884;2024-01-16T07:48:07;128.20;2252.80
55329;DHT22;41205;44.264;19.884;2024-01-16T07:50:33;128.20;2252.80
55329;DHT22;41205;44.264;19.884;2024-01-16T07:52:59;128.30;2252.80
55329;DHT22;41205;44.264;19.884;2024-01-16T07:55:25;128.30;2252.80
55329;DHT22;41205;44.264;19.884;2024-01-16T07:57:53;128.50;2252.80
55329;DHT22;41205;44.264;19.884;2024-01-16T08:00:19;128.70;2252.80
55329;DHT22;41205;44.264;19.884;2024-01-16T08:02:45;128.60;2252.80
55329;DHT22;41205;44.264;19.884;2024-01-16T08:05:10;128.80;2252.80
55329;DHT22;41205;44.264;19.884;2024-01-16T08:07:36;128.80;2252.80
55329;DHT22;41205;44.264;19.884;2024-01-16T08:10:02;128.90;2252.80
55329;DHT22;41205;44.264;19.884;2024-01-16T08:12:28;128.80;2252.80
55329;DHT22;41205;44.264;19.884;2024-01-16T08:14:54;128.90;2252.80
55329;DHT22;41205;44.264;19.884;2024-01-16T08:17:20;153.60;2252.80
55329;DHT22;41205;44.264;19.884;2024-01-16T08:19:46;153.70;2252.80
55329;DHT22;41205;44.264;19.884;2024-01-16T08:22:11;153.80;2252.80
55329;DHT22;41205;44.264;19.884;2024-01-16T08:24:37;153.80;2252.80
55329;DHT22;41205;44.264;19.884;2024-01-16T08:27:03;154.00;2252.80
55329;DHT22;41205;44.264;19.884;2024-01-16T08:29:29;154.20;2252.80
55329;DHT22;41205;44.264;19.884;2024-01-16T08:31:54;154.20;2252.80
55329;DHT22;41205;44.264;19.884;2024-01-16T08:34:20;154.20;2252.80
55329;DHT22;41205;44.264;19.884;2024-01-16T08:36:46;154.40;2252.80
55329;DHT22;41205;44.264;19.884;2024-01-16T08:39:12;179.30;2252.80
55329;DHT22;41205;44.264;19.884;2024-01-16T08:41:38;179.70;2252.80
55329;DHT22;41205;44.264;19.884;2024-01-16T08:44:04;179.90;2252.80
55329;DHT22;41205;44.264;19.884;2024-01-16T08:46:29;179.90;2252.80
55329;DHT22;41205;44.264;19.884;2024-01-16T08:48:55;180.10;2252.80
55329;DHT22;41205;44.264;19.884;2024-01-16T08:51:21;204.90;2252.80
55329;DHT22;41205;44.264;19.884;2024-01-16T08:53:46;205.10;2252.80
55329;DHT22;41205;44.264;19.884;2024-01-16T08:56:12;205.40;2252.80
55329;DHT22;41205;44.264;19.884;2024-01-16T08:58:38;205.20;2252.80
55329;DHT22;41205;44.264;19.884;2024-01-16T09:01:05;230.40;2252.80
55329;DHT22;41205;44.264;19.884;2024-01-16T09:03:33;230.90;2252.80
55329;DHT22;41205;44.264;19.884;2024-01-16T09:05:59;230.70;2252.80
55329;DHT22;41205;44.264;19.884;2024-01-16T09:08:26;231.20;2252.80
55329;DHT22;41205;44.264;19.884;2024-01-16T09:10:53;256.40;2252.80
55329;DHT22;41205;44.264;19.884;2024-01-16T09:13:19;256.30;2252.80
55329;DHT22;41205;44.264;19.884;2024-01-16T09:15:46;282.40;2278.40
55329;DHT22;41205;44.264;19.884;2024-01-16T09:18:12;307.50;2304.00
55329;DHT22;41205;44.264;19.884;2024-01-16T09:20:38;308.10;2252.80
55329;DHT22;41205;44.264;19.884;2024-01-16T09:23:04;307.70;2304.00
55329;DHT22;41205;44.264;19.884;2024-01-16T09:25:30;333.10;2278.40
55329;DHT22;41205;44.264;19.884;2024-01-16T09:27:56;333.70;2227.20
55329;DHT22;41205;44.264;19.884;2024-01-16T09:30:21;333.40;2227.20
55329;DHT22;41205;44.264;19.884;2024-01-16T09:32:51;333.60;2176.00
55329;DHT22;41205;44.264;19.884;2024-01-16T09:35:16;333.60;2176.00
55329;DHT22;41205;44.264;19.884;2024-01-16T09:37:42;333.40;2176.00
55329;DHT22;41205;44.264;19.884;2024-01-16T09:40:09;358.90;2124.80
55329;DHT22;41205;44.264;19.884;2024-01-16T09:42:35;384.70;2073.60
55329;DHT22;41205;44.264;19.884;2024-01-16T09:45:01;384.60;1996.80
55329;DHT22;41205;44.264;19.884;2024-01-16T09:47:34;384.20;2048.00
55329;DHT22;41205;44.264;19.884;2024-01-16T09:50:00;384.90;1996.80
55329;DHT22;41205;44.264;19.884;2024-01-16T09:52:28;410.00;1971.20
55329;DHT22;41205;44.264;19.884;2024-01-16T09:54:55;410.20;1894.40
55329;DHT22;41205;44.264;19.884;2024-01-16T09:57:25;384.90;1920.00
55329;DHT22;41205;44.264;19.884;2024-01-16T09:59:56;384.50;1920.00
55329;DHT22;41205;44.264;19.884;2024-01-16T10:02:23;359.30;1920.00
55329;DHT22;41205;44.264;19.884;2024-01-16T10:04:49;358.80;1971.20
55329;DHT22;41205;44.264;19.884;2024-01-16T10:07:15;333.40;2022.40
55329;DHT22;41205;44.264;19.884;2024-01-16T10:09:43;308.00;2022.40
55329;DHT22;41205;44.264;19.884;2024-01-16T10:12:10;307.20;2073.60
55329;DHT22;41205;44.264;19.884;2024-01-16T10:14:37;281.70;2099.20
55329;DHT22;41205;44.264;19.884;2024-01-16T10:17:04;256.70;2124.80
55329;DHT22;41205;44.264;19.884;2024-01-16T10:19:56;256.20;2176.00
55329;DHT22;41205;44.264;19.884;2024-01-16T10:22:24;231.00;2227.20
55329;DHT22;41205;44.264;19.884;2024-01-16T10:27:33;230.50;2252.80
55329;DHT22;41205;44.264;19.884;2024-01-16T10:29:59;230.40;2252.80
55329;DHT22;41205;44.264;19.884;2024-01-16T10:32:32;205.70;2252.80
55329;DHT22;41205;44.264;19.884;2024-01-16T10:35:05;205.50;2252.80
55329;DHT22;41205;44.264;19.884;2024-01-16T10:37:50;205.10;2252.80
55329;DHT22;41205;44.264;19.884;2024-01-16T10:40:19;205.00;2252.80
55329;DHT22;41205;44.264;19.884;2024-01-16T10:42:56;204.90;2227.20
55329;DHT22;41205;44.264;19.884;2024-01-16T10:45:22;179.80;2252.80
55329;DHT22;41205;44.264;19.884;2024-01-16T10:48:00;179.60;2201.60
55329;DHT22;41205;44.264;19.884;2024-01-16T10:50:27;179.90;2150.40
55329;DHT22;41205;44.264;19.884;2024-01-16T10:52:54;180.00;2124.80
55329;DHT22;41205;44.264;19.884;2024-01-16T10:55:22;179.70;2099.20
55329;DHT22;41205;44.264;19.884;2024-01-16T10:57:49;179.80;2124.80
55329;DHT22;41205;44.264;19.884;2024-01-16T11:00:19;179.80;2176.00
55329;DHT22;41205;44.264;19.884;2024-01-16T11:03:06;179.70;2227.20
55329;DHT22;41205;44.264;19.884;2024-01-16T11:05:34;179.50;2124.80
55329;DHT22;41205;44.264;19.884;2024-01-16T11:08:01;179.30;2048.00
55329;DHT22;41205;44.264;19.884;2024-01-16T11:10:29;154.50;2176.00
55329;DHT22;41205;44.264;19.884;2024-01-16T11:13:00;179.30;2099.20
55329;DHT22;41205;44.264;19.884;2024-01-16T11:15:27;154.50;2176.00
55329;DHT22;41205;44.264;19.884;2024-01-16T11:17:57;154.50;2099.20
55329;DHT22;41205;44.264;19.884;2024-01-16T11:20:26;154.50;2176.00
55329;DHT22;41205;44.264;19.884;2024-01-16T11:22:53;154.50;2201.60
55329;DHT22;41205;44.264;19.884;2024-01-16T11:25:31;179.20;2176.00
55329;DHT22;41205;44.264;19.884;2024-01-16T11:28:11;179.30;2176.00
55329;DHT22;41205;44.264;19.884;2024-01-16T11:30:37;179.30;2201.60
55329;DHT22;41205;44.264;19.884;2024-01-16T11:33:03;179.30;2150.40
55329;DHT22;41205;44.264;19.884;2024-01-16T11:35:36;179.30;2176.00
55329;DHT22;41205;44.264;19.884;2024-01-16T11:38:18;179.30;2201.60
55329;DHT22;41205;44.264;19.884;2024-01-16T11:40:45;179.20;2227.20
55329;DHT22;41205;44.264;19.884;2024-01-16T11:45:58;154.40;2227.20
55329;DHT22;41205;44.264;19.884;2024-01-16T11:48:24;154.40;2176.00
55329;DHT22;41205;44.264;19.884;2024-01-16T11:50:52;154.20;2150.40
55329;DHT22;41205;44.264;19.884;2024-01-16T11:53:33;154.30;2201.60
55329;DHT22;41205;44.264;19.884;2024-01-16T11:58:48;154.20;2176.00
55329;DHT22;41205;44.264;19.884;2024-01-16T12:01:19;154.20;2176.00
55329;DHT22;41205;44.264;19.884;2024-01-16T12:03:46;154.20;2150.40
55329;DHT22;41205;44.264;19.884;2024-01-16T12:06:16;154.40;2099.20
55329;DHT22;41205;44.264;19.884;2024-01-16T12:08:43;179.20;2073.60
55329;DHT22;41205;44.264;19.884;2024-01-16T12:11:09;179.20;2073.60
55329;DHT22;41205;44.264;19.884;2024-01-16T12:13:35;154.50;2073.60
55329;DHT22;41205;44.264;19.884;2024-01-16T12:16:01;179.20;2073.60
55329;DHT22;41205;44.264;19.884;2024-01-16T12:18:27;179.20;2099.20
55329;DHT22;41205;44.264;19.884;2024-01-16T12:20:54;179.20;2124.80
55329;DHT22;41205;44.264;19.884;2024-01-16T12:23:19;154.40;2099.20
55329;DHT22;41205;44.264;19.884;2024-01-16T12:25:51;154.50;2150.40
55329;DHT22;41205;44.264;19.884;2024-01-16T12:28:21;154.50;2124.80
55329;DHT22;41205;44.264;19.884;2024-01-16T12:30:50;154.50;2124.80
55329;DHT22;41205;44.264;19.884;2024-01-16T12:33:20;154.50;2176.00
55329;DHT22;41205;44.264;19.884;2024-01-16T12:35:46;179.20;2176.00
55329;DHT22;41205;44.264;19.884;2024-01-16T12:38:13;179.30;2150.40
55329;DHT22;41205;44.264;19.884;2024-01-16T12:40:46;154.50;2201.60
55329;DHT22;41205;44.264;19.884;2024-01-16T12:43:13;154.50;2227.20
55329;DHT22;41205;44.264;19.884;2024-01-16T12:45:39;179.20;2176.00
55329;DHT22;41205;44.264;19.884;2024-01-16T12:48:05;179.30;2150.40
55329;DHT22;41205;44.264;19.884;2024-01-16T12:50:31;179.30;2176.00
55329;DHT22;41205;44.264;19.884;2024-01-16T12:53:10;179.20;2201.60
55329;DHT22;41205;44.264;19.884;2024-01-16T12:55:37;154.50;2201.60
55329;DHT22;41205;44.264;19.884;2024-01-16T12:58:19;154.40;2201.60
55329;DHT22;41205;44.264;19.884;2024-01-16T13:00:46;179.20;2227.20
55329;DHT22;41205;44.264;19.884;2024-01-16T13:03:16;154.50;2201.60
55329;DHT22;41205;44.264;19.884;2024-01-16T13:05:44;179.20;2176.00
55329;DHT22;41205;44.264;19.884;2024-01-16T13:08:16;179.20;2201.60
55329;DHT22;41205;44.264;19.884;2024-01-16T13:10:42;179.20;2201.60
55329;DHT22;41205;44.264;19.884;2024-01-16T13:13:12;154.50;2201.60
55329;DHT22;41205;44.264;19.884;2024-01-16T13:15:39;179.30;2176.00
55329;DHT22;41205;44.264;19.884;2024-01-16T13:18:05;179.20;2201.60
55329;DHT22;41205;44.264;19.884;2024-01-16T13:20:31;154.50;2227.20
55329;DHT22;41205;44.264;19.884;2024-01-16T13:22:57;179.30;2201.60
55329;DHT22;41205;44.264;19.884;2024-01-16T13:25:23;179.30;2201.60
55329;DHT22;41205;44.264;19.884;2024-01-16T13:27:49;179.30;2227.20
55329;DHT22;41205;44.264;19.884;2024-01-16T13:30:15;179.20;2201.60
55329;DHT22;41205;44.264;19.884;2024-01-16T13:32:42;179.20;2201.60
55329;DHT22;41205;44.264;19.884;2024-01-16T13:35:08;154.50;2201.60
55329;DHT22;41205;44.264;19.884;2024-01-16T13:37:34;179.30;2201.60
55329;DHT22;41205;44.264;19.884;2024-01-16T13:40:04;154.50;2227.20
55329;DHT22;41205;44.264;19.884;2024-01-16T13:42:34;179.20;2176.00
55329;DHT22;41205;44.264;19.884;2024-01-16T13:45:00;154.50;2176.00
55329;DHT22;41205;44.264;19.884;2024-01-16T13:47:26;154.50;2176.00
55329;DHT22;41205;44.264;19.884;2024-01-16T13:49:53;179.20;2150.40
55329;DHT22;41205;44.264;19.884;2024-01-16T13:52:18;179.30;2150.40
55329;DHT22;41205;44.264;19.884;2024-01-16T13:54:44;179.30;2150.40
55329;DHT22;41205;44.264;19.884;2024-01-16T13:57:10;179.20;2150.40
55329;DHT22;41205;44.264;19.884;2024-01-16T13:59:36;179.30;2124.80
55329;DHT22;41205;44.264;19.884;2024-01-16T14:02:03;179.30;2176.00
55329;DHT22;41205;44.264;19.884;2024-01-16T14:04:30;179.20;2201.60
55329;DHT22;41205;44.264;19.884;2024-01-16T14:06:57;179.40;2150.40
55329;DHT22;41205;44.264;19.884;2024-01-16T14:09:23;179.70;2150.40
55329;DHT22;41205;44.264;19.884;2024-01-16T14:11:49;179.40;2150.40
55329;DHT22;41205;44.264;19.884;2024-01-16T14:14:15;179.20;2176.00
55329;DHT22;41205;44.264;19.884;2024-01-16T14:16:40;154.50;2201.60
55329;DHT22;41205;44.264;19.884;2024-01-16T14:19:06;154.50;2227.20
55329;DHT22;41205;44.264;19.884;2024-01-16T14:21:32;154.50;2227.20
55329;DHT22;41205;44.264;19.884;2024-01-16T14:23:58;154.50;2252.80
55329;DHT22;41205;44.264;19.884;2024-01-16T14:26:23;154.50;2252.80
55329;DHT22;41205;44.264;19.884;2024-01-16T14:28:49;154.40;2227.20
55329;DHT22;41205;44.264;19.884;2024-01-16T14:31:15;154.50;2227.20
55329;DHT22;41205;44.264;19.884;2024-01-16T14:33:41;154.50;2252.80
55329;DHT22;41205;44.264;19.884;2024-01-16T14:36:07;154.50;2227.20
55329;DHT22;41205;44.264;19.884;2024-01-16T14:38:33;154.20;2252.80
55329;DHT22;41205;44.264;19.884;2024-01-16T14:40:59;154.10;2252.80
55329;DHT22;41205;44.264;19.884;2024-01-16T14:43:25;154.10;2252.80